sensor_id;sensor_type;location;lat;lon;timestamp;temperature;humidity
14737;DHT22;7459;53.590;10.062;2023-07-29T00:02:10;18.90;99.90
14737;DHT22;7459;53.590;10.062;2023-07-29T00:04:36;19.10;99.90
14737;DHT22;7459;53.590;10.062;2023-07-29T00:07:01;18.70;99.90
14737;DHT22;7459;53.590;10.062;2023-07-29T00:09:27;18.90;99.90
14737;DHT22;7459;53.590;10.062;2023-07-29T00:11:53;18.70;99.90
14737;DHT22;7459;53.590;10.062;2023-07-29T00:14:18;18.70;99.90
14737;DHT22;7459;53.590;10.062;2023-07-29T00:16:44;18.80;99.90
14737;DHT22;7459;53.590;10.062;2023-07-29T00:19:10;18.80;99.90
14737;DHT22;7459;53.590;10.062;2023-07-29T00:21:35;18.70;99.90
14737;DHT22;7459;53.590;10.062;2023-07-29T00:24:01;18.80;99.90
14737;DHT22;7459;53.590;10.062;2023-07-29T00:26:27;18.60;99.90
14737;DHT22;7459;53.590;10.062;2023-07-29T00:28:55;18.60;99.90
14737;DHT22;7459;53.590;10.062;2023-07-29T00:31:21;18.90;99.90
14737;DHT22;7459;53.590;10.062;2023-07-29T00:33:47;18.60;99.90
14737;DHT22;7459;53.590;10.062;2023-07-29T00:36:13;18.60;99.90
14737;DHT22;7459;53.590;10.062;2023-07-29T00:38:38;18.60;99.90
14737;DHT22;7459;53.590;10.062;2023-07-29T00:41:04;18.50;99.90
14737;DHT22;7459;53.590;10.062;2023-07-29T00:43:30;18.50;99.90
14737;DHT22;7459;53.590;10.062;2023-07-29T00:45:56;18.60;99.90
14737;DHT22;7459;53.590;10.062;2023-07-29T00:48:25;18.50;99.90
14737;DHT22;7459;53.590;10.062;2023-07-29T00:50:52;18.60;99.90
14737;DHT22;7459;53.590;10.062;2023-07-29T00:53:18;18.40;99.90
14737;DHT22;7459;53.590;10.062;2023-07-29T00:55:44;18.50;99.90
14737;DHT22;7459;53.590;10.062;2023-07-29T00:58:10;18.60;99.90
14737;DHT22;7459;53.590;10.062;2023-07-29T01:00:36;18.40;99.90
14737;DHT22;7459;53.590;10.062;2023-07-29T01:03:02;18.50;99.90
14737;DHT22;7459;53.590;10.062;2023-07-29T01:05:32;18.80;99.90
14737;DHT22;7459;53.590;10.062;2023-07-29T01:08:17;18.60;99.90
14737;DHT22;7459;53.590;10.062;2023-07-29T01:11:18;18.50;99.90
14737;DHT22;7459;53.590;10.062;2023-07-29T01:13:55;18.60;99.90
14737;DHT22;7459;53.590;10.062;2023-07-29T01:16:38;18.50;99.90
14737;DHT22;7459;53.590;10.062;2023-07-29T01:19:06;18.40;99.90
14737;DHT22;7459;53.590;10.062;2023-07-29T01:21:35;18.40;99.90
14737;DHT22;7459;53.590;10.062;2023-07-29T01:24:02;18.50;99.90
14737;DHT22;7459;53.590;10.062;2023-07-29T01:26:27;18.40;99.90
14737;DHT22;7459;53.590;10.062;2023-07-29T01:28:55;18.50;99.90
14737;DHT22;7459;53.590;10.062;2023-07-29T01:34:09;18.70;99.90
14737;DHT22;7459;53.590;10.062;2023-07-29T01:36:39;18.60;99.90
14737;DHT22;7459;53.590;10.062;2023-07-29T01:39:07;18.60;99.90
14737;DHT22;7459;53.590;10.062;2023-07-29T01:41:34;18.60;99.90
14737;DHT22;7459;53.590;10.062;2023-07-29T01:44:01;18.60;99.90
14737;DHT22;7459;53.590;10.062;2023-07-29T01:46:27;18.50;99.90
14737;DHT22;7459;53.590;10.062;2023-07-29T01:48:53;18.60;99.90
14737;DHT22;7459;53.590;10.062;2023-07-29T01:51:19;18.50;99.90
14737;DHT22;7459;53.590;10.062;2023-07-29T01:53:46;18.50;99.90
14737;DHT22;7459;53.590;10.062;2023-07-29T01:56:11;18.60;99.90
14737;DHT22;7459;53.590;10.062;2023-07-29T01:58:37;18.50;99.90
14737;DHT22;7459;53.590;10.062;2023-07-29T02:01:02;18.70;99.90
14737;DHT22;7459;53.590;10.062;2023-07-29T02:03:28;18.70;99.90
14737;DHT22;7459;53.590;10.062;2023-07-29T02:05:54;18.70;99.90
14737;DHT22;7459;53.590;10.062;2023-07-29T02:08:19;18.70;99.90
14737;DHT22;7459;53.590;10.062;2023-07-29T02:10:45;18.80;99.90
14737;DHT22;7459;53.590;10.062;2023-07-29T02:13:11;18.90;99.90
14737;DHT22;7459;53.590;10.062;2023-07-29T02:15:37;19.10;99.90
14737;DHT22;7459;53.590;10.062;2023-07-29T02:18:03;18.90;99.90
14737;DHT22;7459;53.590;10.062;2023-07-29T02:20:29;18.80;99.90
14737;DHT22;7459;53.590;10.062;2023-07-29T02:22:55;18.80;99.90
14737;DHT22;7459;53.590;10.062;2023-07-29T02:25:20;18.90;99.90
14737;DHT22;7459;53.590;10.062;2023-07-29T02:27:46;19.00;99.90
14737;DHT22;7459;53.590;10.062;2023-07-29T02:30:12;19.00;99.90
14737;DHT22;7459;53.590;10.062;2023-07-29T02:32:38;18.90;99.90
14737;DHT22;7459;53.590;10.062;2023-07-29T02:35:03;19.00;99.90
14737;DHT22;7459;53.590;10.062;2023-07-29T02:37:30;18.90;99.90
14737;DHT22;7459;53.590;10.062;2023-07-29T02:39:56;19.00;99.90
14737;DHT22;7459;53.590;10.062;2023-07-29T02:42:21;18.90;99.90
14737;DHT22;7459;53.590;10.062;2023-07-29T02:44:47;19.10;99.90
14737;DHT22;7459;53.590;10.062;2023-07-29T02:47:13;18.90;99.90
14737;DHT22;7459;53.590;10.062;2023-07-29T02:49:38;19.10;99.90
14737;DHT22;7459;53.590;10.062;2023-07-29T02:52:04;18.90;99.90
14737;DHT22;7459;53.590;10.062;2023-07-29T02:54:30;19.10;99.90
14737;DHT22;7459;53.590;10.062;2023-07-29T02:56:56;19.10;99.90
14737;DHT22;7459;53.590;10.062;2023-07-29T02:59:21;19.20;99.90
14737;DHT22;7459;53.590;10.062;2023-07-29T03:01:47;19.10;99.90
14737;DHT22;7459;53.590;10.062;2023-07-29T03:04:13;19.10;99.90
14737;DHT22;7459;53.590;10.062;2023-07-29T03:06:39;19.10;99.90
14737;DHT22;7459;53.590;10.062;2023-07-29T03:09:04;19.30;99.90
14737;DHT22;7459;53.590;10.062;2023-07-29T03:11:30;19.40;99.90
14737;DHT22;7459;53.590;10.062;2023-07-29T03:13:58;19.00;99.90
14737;DHT22;7459;53.590;10.062;2023-07-29T03:16:26;18.90;99.90
14737;DHT22;7459;53.590;10.062;2023-07-29T03:18:51;19.40;99.90
14737;DHT22;7459;53.590;10.062;2023-07-29T03:21:17;19.40;99.90
14737;DHT22;7459;53.590;10.062;2023-07-29T03:23:43;19.00;99.90
14737;DHT22;7459;53.590;10.062;2023-07-29T03:26:08;19.20;99.90
14737;DHT22;7459;53.590;10.062;2023-07-29T03:28:40;18.90;99.90
14737;DHT22;7459;53.590;10.062;2023-07-29T03:31:07;19.00;99.90
14737;DHT22;7459;53.590;10.062;2023-07-29T03:33:33;19.00;99.90
14737;DHT22;7459;53.590;10.062;2023-07-29T03:35:59;18.80;99.90
14737;DHT22;7459;53.590;10.062;2023-07-29T03:38:25;19.30;99.90
14737;DHT22;7459;53.590;10.062;2023-07-29T03:40:51;19.10;99.90
14737;DHT22;7459;53.590;10.062;2023-07-29T03:43:16;18.90;99.90
14737;DHT22;7459;53.590;10.062;2023-07-29T03:45:42;18.90;99.90
14737;DHT22;7459;53.590;10.062;2023-07-29T03:48:08;19.10;99.90
14737;DHT22;7459;53.590;10.062;2023-07-29T03:50:35;18.90;99.90
14737;DHT22;7459;53.590;10.062;2023-07-29T03:53:04;19.00;99.90
14737;DHT22;7459;53.590;10.062;2023-07-29T03:55:31;19.20;99.90
14737;DHT22;7459;53.590;10.062;2023-07-29T03:57:58;19.20;99.90
14737;DHT22;7459;53.590;10.062;2023-07-29T04:00:25;19.20;99.90
14737;DHT22;7459;53.590;10.062;2023-07-29T04:02:50;19.00;99.90
14737;DHT22;7459;53.590;10.062;2023-07-29T04:05:16;18.70;99.90
14737;DHT22;7459;53.590;10.062;2023-07-29T04:07:42;19.20;99.90
14737;DHT22;7459;53.590;10.062;2023-07-29T04:10:08;18.80;99.90
14737;DHT22;7459;53.590;10.062;2023-07-29T04:12:34;19.10;99.90
14737;DHT22;7459;53.590;10.062;2023-07-29T04:15:00;18.90;99.90
14737;DHT22;7459;53.590;10.062;2023-07-29T04:17:25;18.90;99.90
14737;DHT22;7459;53.590;10.062;2023-07-29T04:19:51;18.80;99.90
14737;DHT22;7459;53.590;10.062;2023-07-29T04:22:17;18.90;99.90
14737;DHT22;7459;53.590;10.062;2023-07-29T04:24:42;19.00;99.90
14737;DHT22;7459;53.590;10.062;2023-07-29T04:27:08;18.90;99.90
14737;DHT22;7459;53.590;10.062;2023-07-29T04:29:36;19.00;99.90
14737;DHT22;7459;53.590;10.062;2023-07-29T04:32:05;19.10;99.90
14737;DHT22;7459;53.590;10.062;2023-07-29T04:34:31;18.80;99.90
14737;DHT22;7459;53.590;10.062;2023-07-29T04:36:57;18.80;99.90
14737;DHT22;7459;53.590;10.062;2023-07-29T04:39:23;19.10;99.90
14737;DHT22;7459;53.590;10.062;2023-07-29T04:41:49;19.00;99.90
14737;DHT22;7459;53.590;10.062;2023-07-29T04:44:14;19.00;99.90
14737;DHT22;7459;53.590;10.062;2023-07-29T04:46:40;19.00;99.90
14737;DHT22;7459;53.590;10.062;2023-07-29T04:49:06;19.20;99.90
14737;DHT22;7459;53.590;10.062;2023-07-29T04:51:31;19.30;99.90
14737;DHT22;7459;53.590;10.062;2023-07-29T04:53:58;19.10;99.90
14737;DHT22;7459;53.590;10.062;2023-07-29T04:56:24;18.80;99.90
14737;DHT22;7459;53.590;10.062;2023-07-29T04:58:50;19.00;99.90
14737;DHT22;7459;53.590;10.062;2023-07-29T05:01:16;18.90;99.90
14737;DHT22;7459;53.590;10.062;2023-07-29T05:03:41;19.20;99.90
14737;DHT22;7459;53.590;10.062;2023-07-29T05:06:07;18.90;99.90
14737;DHT22;7459;53.590;10.062;2023-07-29T05:08:33;19.30;99.90
14737;DHT22;7459;53.590;10.062;2023-07-29T05:10:58;18.80;99.90
14737;DHT22;7459;53.590;10.062;2023-07-29T05:13:24;18.80;99.90
14737;DHT22;7459;53.590;10.062;2023-07-29T05:15:50;19.00;99.90
14737;DHT22;7459;53.590;10.062;2023-07-29T05:18:16;19.00;99.90
14737;DHT22;7459;53.590;10.062;2023-07-29T05:20:42;18.90;99.90
14737;DHT22;7459;53.590;10.062;2023-07-29T05:23:09;19.10;99.90
14737;DHT22;7459;53.590;10.062;2023-07-29T05:25:34;19.00;99.90
14737;DHT22;7459;53.590;10.062;2023-07-29T05:28:03;18.90;99.90
14737;DHT22;7459;53.590;10.062;2023-07-29T05:30:30;18.90;99.90
14737;DHT22;7459;53.590;10.062;2023-07-29T05:33:03;19.00;99.90
14737;DHT22;7459;53.590;10.062;2023-07-29T05:35:30;19.00;99.90
14737;DHT22;7459;53.590;10.062;2023-07-29T05:37:55;19.20;99.90
14737;DHT22;7459;53.590;10.062;2023-07-29T05:40:21;19.00;99.90
14737;DHT22;7459;53.590;10.062;2023-07-29T05:42:47;18.90;99.90
14737;DHT22;7459;53.590;10.062;2023-07-29T05:45:13;19.10;99.90
14737;DHT22;7459;53.590;10.062;2023-07-29T05:47:39;18.90;99.90
14737;DHT22;7459;53.590;10.062;2023-07-29T05:50:05;19.00;99.90
14737;DHT22;7459;53.590;10.062;2023-07-29T05:52:31;19.40;99.90
14737;DHT22;7459;53.590;10.062;2023-07-29T05:54:57;18.90;99.90
14737;DHT22;7459;53.590;10.062;2023-07-29T05:57:23;19.00;99.90
14737;DHT22;7459;53.590;10.062;2023-07-29T05:59:48;19.10;99.90
14737;DHT22;7459;53.590;10.062;2023-07-29T06:02:14;19.30;99.90
14737;DHT22;7459;53.590;10.062;2023-07-29T06:04:40;19.00;99.90
14737;DHT22;7459;53.590;10.062;2023-07-29T06:07:06;19.30;99.90
14737;DHT22;7459;53.590;10.062;2023-07-29T06:09:32;18.90;99.90
14737;DHT22;7459;53.590;10.062;2023-07-29T06:11:58;18.90;99.90
14737;DHT22;7459;53.590;10.062;2023-07-29T06:14:23;19.00;99.90
14737;DHT22;7459;53.590;10.062;2023-07-29T06:16:49;19.10;99.90
14737;DHT22;7459;53.590;10.062;2023-07-29T06:19:15;19.10;99.90
14737;DHT22;7459;53.590;10.062;2023-07-29T06:21:40;19.20;99.90
14737;DHT22;7459;53.590;10.062;2023-07-29T06:24:06;19.20;99.90
14737;DHT22;7459;53.590;10.062;2023-07-29T06:26:32;19.20;99.90
14737;DHT22;7459;53.590;10.062;2023-07-29T06:28:57;19.30;99.90
14737;DHT22;7459;53.590;10.062;2023-07-29T06:31:23;19.20;99.90
14737;DHT22;7459;53.590;10.062;2023-07-29T06:33:49;19.50;99.90
14737;DHT22;7459;53.590;10.062;2023-07-29T06:36:15;19.10;99.90
14737;DHT22;7459;53.590;10.062;2023-07-29T06:38:40;19.20;99.90
14737;DHT22;7459;53.590;10.062;2023-07-29T06:41:07;19.30;99.90
14737;DHT22;7459;53.590;10.062;2023-07-29T06:43:32;19.10;99.90
14737;DHT22;7459;53.590;10.062;2023-07-29T06:45:58;19.40;99.90
14737;DHT22;7459;53.590;10.062;2023-07-29T06:48:24;19.20;99.90
14737;DHT22;7459;53.590;10.062;2023-07-29T06:50:50;19.20;99.90
14737;DHT22;7459;53.590;10.062;2023-07-29T06:53:16;19.40;99.90
14737;DHT22;7459;53.590;10.062;2023-07-29T06:55:42;19.20;99.90
14737;DHT22;7459;53.590;10.062;2023-07-29T06:58:09;19.30;99.90
14737;DHT22;7459;53.590;10.062;2023-07-29T07:00:35;19.50;99.90
14737;DHT22;7459;53.590;10.062;2023-07-29T07:03:00;19.40;99.90
14737;DHT22;7459;53.590;10.062;2023-07-29T07:05:26;19.30;99.90
14737;DHT22;7459;53.590;10.062;2023-07-29T07:07:52;19.30;99.90
14737;DHT22;7459;53.590;10.062;2023-07-29T07:10:18;19.40;99.90
14737;DHT22;7459;53.590;10.062;2023-07-29T07:12:43;19.60;99.90
14737;DHT22;7459;53.590;10.062;2023-07-29T07:15:09;19.40;99.90
14737;DHT22;7459;53.590;10.062;2023-07-29T07:17:35;19.20;99.90
14737;DHT22;7459;53.590;10.062;2023-07-29T07:20:00;19.60;99.90
14737;DHT22;7459;53.590;10.062;2023-07-29T07:22:26;19.40;99.90
14737;DHT22;7459;53.590;10.062;2023-07-29T07:24:52;19.70;99.90
14737;DHT22;7459;53.590;10.062;2023-07-29T07:27:18;19.50;99.90
14737;DHT22;7459;53.590;10.062;2023-07-29T07:29:43;19.50;99.90
14737;DHT22;7459;53.590;10.062;2023-07-29T07:32:09;19.50;99.90
14737;DHT22;7459;53.590;10.062;2023-07-29T07:34:35;19.50;99.90
14737;DHT22;7459;53.590;10.062;2023-07-29T07:37:00;19.30;99.90
14737;DHT22;7459;53.590;10.062;2023-07-29T07:39:26;19.70;99.90
14737;DHT22;7459;53.590;10.062;2023-07-29T07:41:52;19.30;99.90
14737;DHT22;7459;53.590;10.062;2023-07-29T07:44:18;19.60;99.90
14737;DHT22;7459;53.590;10.062;2023-07-29T07:46:45;19.40;99.90
14737;DHT22;7459;53.590;10.062;2023-07-29T07:49:11;19.40;99.90
14737;DHT22;7459;53.590;10.062;2023-07-29T07:51:38;19.30;99.90
14737;DHT22;7459;53.590;10.062;2023-07-29T07:54:03;19.50;99.90
14737;DHT22;7459;53.590;10.062;2023-07-29T07:56:29;19.30;99.90
14737;DHT22;7459;53.590;10.062;2023-07-29T07:58:55;19.60;99.90
14737;DHT22;7459;53.590;10.062;2023-07-29T08:01:21;19.30;99.90
14737;DHT22;7459;53.590;10.062;2023-07-29T08:03:46;19.60;99.90
14737;DHT22;7459;53.590;10.062;2023-07-29T08:06:12;19.40;99.90
14737;DHT22;7459;53.590;10.062;2023-07-29T08:08:38;19.40;99.90
14737;DHT22;7459;53.590;10.062;2023-07-29T08:11:03;19.80;99.90
14737;DHT22;7459;53.590;10.062;2023-07-29T08:13:29;19.60;99.90
14737;DHT22;7459;53.590;10.062;2023-07-29T08:15:55;19.30;99.90
14737;DHT22;7459;53.590;10.062;2023-07-29T08:18:20;19.40;99.90
14737;DHT22;7459;53.590;10.062;2023-07-29T08:20:54;19.50;99.90
14737;DHT22;7459;53.590;10.062;2023-07-29T08:23:21;19.50;99.90
14737;DHT22;7459;53.590;10.062;2023-07-29T08:25:54;19.40;99.90
14737;DHT22;7459;53.590;10.062;2023-07-29T08:28:22;19.40;99.90
14737;DHT22;7459;53.590;10.062;2023-07-29T08:30:48;19.30;99.90
14737;DHT22;7459;53.590;10.062;2023-07-29T08:33:14;19.60;99.90
14737;DHT22;7459;53.590;10.062;2023-07-29T08:35:40;19.40;99.90
14737;DHT22;7459;53.590;10.062;2023-07-29T08:38:06;19.40;99.90
14737;DHT22;7459;53.590;10.062;2023-07-29T08:40:34;19.70;99.90
14737;DHT22;7459;53.590;10.062;2023-07-29T08:43:04;19.60;99.90
14737;DHT22;7459;53.590;10.062;2023-07-29T08:45:37;19.40;99.90
14737;DHT22;7459;53.590;10.062;2023-07-29T08:48:07;19.40;99.90
14737;DHT22;7459;53.590;10.062;2023-07-29T08:50:35;19.60;99.90
14737;DHT22;7459;53.590;10.062;2023-07-29T08:53:04;19.50;99.90
14737;DHT22;7459;53.590;10.062;2023-07-29T08:55:31;19.50;99.90
14737;DHT22;7459;53.590;10.062;2023-07-29T08:57:58;19.40;99.90
14737;DHT22;7459;53.590;10.062;2023-07-29T09:00:25;19.40;99.90
14737;DHT22;7459;53.590;10.062;2023-07-29T09:02:51;19.60;99.90
14737;DHT22;7459;53.590;10.062;2023-07-29T09:05:17;19.40;99.90
14737;DHT22;7459;53.590;10.062;2023-07-29T09:07:44;19.50;99.90
14737;DHT22;7459;53.590;10.062;2023-07-29T09:10:10;19.70;99.90
14737;DHT22;7459;53.590;10.062;2023-07-29T09:12:36;19.90;99.90
14737;DHT22;7459;53.590;10.062;2023-07-29T09:15:02;19.60;99.90
14737;DHT22;7459;53.590;10.062;2023-07-29T09:17:33;19.60;99.90
14737;DHT22;7459;53.590;10.062;2023-07-29T09:19:58;19.90;99.90
14737;DHT22;7459;53.590;10.062;2023-07-29T09:22:26;19.50;99.90
14737;DHT22;7459;53.590;10.062;2023-07-29T09:24:53;20.00;99.90
14737;DHT22;7459;53.590;10.062;2023-07-29T09:27:28;19.70;99.90
14737;DHT22;7459;53.590;10.062;2023-07-29T09:29:57;19.60;99.90
14737;DHT22;7459;53.590;10.062;2023-07-29T09:32:24;19.60;99.90
14737;DHT22;7459;53.590;10.062;2023-07-29T09:34:50;19.60;99.90
14737;DHT22;7459;53.590;10.062;2023-07-29T09:37:18;20.10;99.90
14737;DHT22;7459;53.590;10.062;2023-07-29T09:39:49;19.70;99.90
14737;DHT22;7459;53.590;10.062;2023-07-29T09:42:22;19.80;99.90
14737;DHT22;7459;53.590;10.062;2023-07-29T09:44:49;20.00;99.90
14737;DHT22;7459;53.590;10.062;2023-07-29T09:47:23;19.70;99.90
14737;DHT22;7459;53.590;10.062;2023-07-29T09:49:50;19.80;99.90
14737;DHT22;7459;53.590;10.062;2023-07-29T09:52:17;20.00;99.90
14737;DHT22;7459;53.590;10.062;2023-07-29T09:54:44;19.80;99.90
14737;DHT22;7459;53.590;10.062;2023-07-29T09:57:17;20.00;99.90
14737;DHT22;7459;53.590;10.062;2023-07-29T09:59:56;20.10;99.90
14737;DHT22;7459;53.590;10.062;2023-07-29T10:02:22;20.00;99.90
14737;DHT22;7459;53.590;10.062;2023-07-29T10:04:52;20.00;99.90
14737;DHT22;7459;53.590;10.062;2023-07-29T10:07:18;20.10;99.90
14737;DHT22;7459;53.590;10.062;2023-07-29T10:09:45;19.90;99.90
14737;DHT22;7459;53.590;10.062;2023-07-29T10:12:11;20.00;99.90
14737;DHT22;7459;53.590;10.062;2023-07-29T10:14:38;20.10;99.90
14737;DHT22;7459;53.590;10.062;2023-07-29T10:17:07;20.20;99.90
14737;DHT22;7459;53.590;10.062;2023-07-29T10:19:34;20.20;99.90
14737;DHT22;7459;53.590;10.062;2023-07-29T10:22:03;20.00;99.90
14737;DHT22;7459;53.590;10.062;2023-07-29T10:24:32;20.30;99.90
14737;DHT22;7459;53.590;10.062;2023-07-29T10:27:01;20.40;99.90
14737;DHT22;7459;53.590;10.062;2023-07-29T10:29:38;20.30;99.90
14737;DHT22;7459;53.590;10.062;2023-07-29T10:32:05;20.20;99.90
14737;DHT22;7459;53.590;10.062;2023-07-29T10:34:31;20.50;99.90
14737;DHT22;7459;53.590;10.062;2023-07-29T10:36:59;20.50;99.90
14737;DHT22;7459;53.590;10.062;2023-07-29T10:39:25;20.40;99.90
14737;DHT22;7459;53.590;10.062;2023-07-29T10:42:02;20.30;99.90
14737;DHT22;7459;53.590;10.062;2023-07-29T10:47:13;20.40;99.90
14737;DHT22;7459;53.590;10.062;2023-07-29T10:49:46;20.30;99.90
14737;DHT22;7459;53.590;10.062;2023-07-29T10:52:16;20.30;99.90
14737;DHT22;7459;53.590;10.062;2023-07-29T10:54:47;20.30;99.90
14737;DHT22;7459;53.590;10.062;2023-07-29T10:57:14;20.20;99.90
14737;DHT22;7459;53.590;10.062;2023-07-29T10:59:41;20.30;99.90
14737;DHT22;7459;53.590;10.062;2023-07-29T11:02:18;20.40;99.90
14737;DHT22;7459;53.590;10.062;2023-07-29T11:04:50;20.20;99.90
14737;DHT22;7459;53.590;10.062;2023-07-29T11:12:39;20.40;99.90
14737;DHT22;7459;53.590;10.062;2023-07-29T11:15:12;20.40;99.90
14737;DHT22;7459;53.590;10.062;2023-07-29T11:20:08;20.30;99.90
14737;DHT22;7459;53.590;10.062;2023-07-29T11:22:35;20.30;99.90
14737;DHT22;7459;53.590;10.062;2023-07-29T11:25:02;20.30;99.90
14737;DHT22;7459;53.590;10.062;2023-07-29T11:27:28;20.40;99.90
14737;DHT22;7459;53.590;10.062;2023-07-29T11:30:01;20.50;99.90
14737;DHT22;7459;53.590;10.062;2023-07-29T11:32:30;20.40;99.90
14737;DHT22;7459;53.590;10.062;2023-07-29T11:35:00;20.50;99.90
14737;DHT22;7459;53.590;10.062;2023-07-29T11:37:27;20.60;99.90
14737;DHT22;7459;53.590;10.062;2023-07-29T11:39:52;20.40;99.90
14737;DHT22;7459;53.590;10.062;2023-07-29T11:42:18;20.50;99.90
14737;DHT22;7459;53.590;10.062;2023-07-29T11:44:45;20.70;99.90
14737;DHT22;7459;53.590;10.062;2023-07-29T11:47:12;20.70;99.90
14737;DHT22;7459;53.590;10.062;2023-07-29T11:49:39;20.60;99.90
14737;DHT22;7459;53.590;10.062;2023-07-29T11:52:09;20.60;99.90
14737;DHT22;7459;53.590;10.062;2023-07-29T11:54:36;20.90;99.90
14737;DHT22;7459;53.590;10.062;2023-07-29T11:57:07;20.80;99.90
14737;DHT22;7459;53.590;10.062;2023-07-29T11:59:35;20.90;99.90
14737;DHT22;7459;53.590;10.062;2023-07-29T12:02:02;21.00;99.90
14737;DHT22;7459;53.590;10.062;2023-07-29T12:04:31;21.10;99.90
14737;DHT22;7459;53.590;10.062;2023-07-29T12:06:58;21.10;99.90
14737;DHT22;7459;53.590;10.062;2023-07-29T12:09:25;21.20;99.90
14737;DHT22;7459;53.590;10.062;2023-07-29T12:11:52;21.40;99.90
14737;DHT22;7459;53.590;10.062;2023-07-29T12:14:18;21.30;99.90
14737;DHT22;7459;53.590;10.062;2023-07-29T12:16:44;21.40;99.90
14737;DHT22;7459;53.590;10.062;2023-07-29T12:19:13;21.20;99.90
14737;DHT22;7459;53.590;10.062;2023-07-29T12:21:43;21.30;99.90
14737;DHT22;7459;53.590;10.062;2023-07-29T12:24:09;21.30;99.90
14737;DHT22;7459;53.590;10.062;2023-07-29T12:26:37;21.40;99.90
14737;DHT22;7459;53.590;10.062;2023-07-29T12:29:17;21.50;99.90
14737;DHT22;7459;53.590;10.062;2023-07-29T12:31:45;21.50;99.90
14737;DHT22;7459;53.590;10.062;2023-07-29T12:34:20;21.60;99.90
14737;DHT22;7459;53.590;10.062;2023-07-29T12:36:48;21.60;99.90
14737;DHT22;7459;53.590;10.062;2023-07-29T12:41:54;21.50;99.90
14737;DHT22;7459;53.590;10.062;2023-07-29T12:44:22;21.70;99.90
14737;DHT22;7459;53.590;10.062;2023-07-29T12:46:48;22.00;99.90
14737;DHT22;7459;53.590;10.062;2023-07-29T12:49:14;21.90;99.90
14737;DHT22;7459;53.590;10.062;2023-07-29T12:51:40;22.00;99.90
14737;DHT22;7459;53.590;10.062;2023-07-29T12:54:06;22.00;99.90
14737;DHT22;7459;53.590;10.062;2023-07-29T12:58:59;22.00;99.90
14737;DHT22;7459;53.590;10.062;2023-07-29T13:01:26;21.90;99.90
14737;DHT22;7459;53.590;10.062;2023-07-29T13:03:53;22.00;99.90
14737;DHT22;7459;53.590;10.062;2023-07-29T13:06:19;21.90;99.90
14737;DHT22;7459;53.590;10.062;2023-07-29T13:08:47;21.90;99.90
14737;DHT22;7459;53.590;10.062;2023-07-29T13:11:13;21.90;99.90
14737;DHT22;7459;53.590;10.062;2023-07-29T13:13:39;22.00;99.90
14737;DHT22;7459;53.590;10.062;2023-07-29T13:16:05;22.00;99.90
14737;DHT22;7459;53.590;10.062;2023-07-29T13:18:32;22.00;99.90
14737;DHT22;7459;53.590;10.062;2023-07-29T13:20:58;22.00;99.90
14737;DHT22;7459;53.590;10.062;2023-07-29T13:23:25;22.10;99.90
14737;DHT22;7459;53.590;10.062;2023-07-29T13:25:51;22.30;99.90
14737;DHT22;7459;53.590;10.062;2023-07-29T13:28:16;22.30;99.90
14737;DHT22;7459;53.590;10.062;2023-07-29T13:30:42;22.10;99.90
14737;DHT22;7459;53.590;10.062;2023-07-29T13:33:08;22.20;99.90
14737;DHT22;7459;53.590;10.062;2023-07-29T13:35:34;22.20;99.90
14737;DHT22;7459;53.590;10.062;2023-07-29T13:38:00;22.40;99.90
14737;DHT22;7459;53.590;10.062;2023-07-29T13:40:26;22.10;99.90
14737;DHT22;7459;53.590;10.062;2023-07-29T13:42:53;22.10;99.90
14737;DHT22;7459;53.590;10.062;2023-07-29T13:45:19;22.40;99.90
14737;DHT22;7459;53.590;10.062;2023-07-29T13:47:45;22.40;99.90
14737;DHT22;7459;53.590;10.062;2023-07-29T13:50:10;22.20;99.90
14737;DHT22;7459;53.590;10.062;2023-07-29T13:52:37;22.20;99.90
14737;DHT22;7459;53.590;10.062;2023-07-29T13:55:04;22.20;99.90
14737;DHT22;7459;53.590;10.062;2023-07-29T13:57:31;22.40;99.90
14737;DHT22;7459;53.590;10.062;2023-07-29T13:59:57;22.40;99.90
14737;DHT22;7459;53.590;10.062;2023-07-29T14:02:22;22.40;99.90
14737;DHT22;7459;53.590;10.062;2023-07-29T14:04:48;22.40;99.90
14737;DHT22;7459;53.590;10.062;2023-07-29T14:07:14;22.30;99.90
14737;DHT22;7459;53.590;10.062;2023-07-29T14:09:39;22.30;99.90
14737;DHT22;7459;53.590;10.062;2023-07-29T14:12:06;22.50;99.90
14737;DHT22;7459;53.590;10.062;2023-07-29T14:14:32;22.60;99.90
14737;DHT22;7459;53.590;10.062;2023-07-29T14:16:58;22.50;99.90
14737;DHT22;7459;53.590;10.062;2023-07-29T14:19:24;22.40;99.90
14737;DHT22;7459;53.590;10.062;2023-07-29T14:21:49;22.40;99.90
14737;DHT22;7459;53.590;10.062;2023-07-29T14:24:15;22.50;99.90
14737;DHT22;7459;53.590;10.062;2023-07-29T14:26:42;22.60;99.90
14737;DHT22;7459;53.590;10.062;2023-07-29T14:29:07;22.70;99.90
14737;DHT22;7459;53.590;10.062;2023-07-29T14:31:33;22.70;99.90
14737;DHT22;7459;53.590;10.062;2023-07-29T14:33:59;22.80;99.90
14737;DHT22;7459;53.590;10.062;2023-07-29T14:36:25;22.70;99.90
14737;DHT22;7459;53.590;10.062;2023-07-29T14:38:51;22.80;99.90
14737;DHT22;7459;53.590;10.062;2023-07-29T14:41:17;22.70;99.90
14737;DHT22;7459;53.590;10.062;2023-07-29T14:43:42;22.60;99.90
14737;DHT22;7459;53.590;10.062;2023-07-29T14:46:08;22.60;99.90
14737;DHT22;7459;53.590;10.062;2023-07-29T14:48:34;22.70;99.90
14737;DHT22;7459;53.590;10.062;2023-07-29T14:50:59;22.70;99.90
14737;DHT22;7459;53.590;10.062;2023-07-29T14:53:25;22.60;99.90
14737;DHT22;7459;53.590;10.062;2023-07-29T14:55:51;22.50;99.90
14737;DHT22;7459;53.590;10.062;2023-07-29T14:58:17;22.50;99.90
14737;DHT22;7459;53.590;10.062;2023-07-29T15:00:42;22.50;99.90
14737;DHT22;7459;53.590;10.062;2023-07-29T15:03:08;22.40;99.90
14737;DHT22;7459;53.590;10.062;2023-07-29T15:05:34;22.40;99.90
14737;DHT22;7459;53.590;10.062;2023-07-29T15:07:59;22.40;99.90
14737;DHT22;7459;53.590;10.062;2023-07-29T15:10:25;22.40;99.90
14737;DHT22;7459;53.590;10.062;2023-07-29T15:12:51;22.40;99.90
14737;DHT22;7459;53.590;10.062;2023-07-29T15:15:17;22.40;99.90
14737;DHT22;7459;53.590;10.062;2023-07-29T15:17:43;22.50;99.90
14737;DHT22;7459;53.590;10.062;2023-07-29T15:20:09;22.50;99.90
14737;DHT22;7459;53.590;10.062;2023-07-29T15:22:35;22.50;99.90
14737;DHT22;7459;53.590;10.062;2023-07-29T15:25:01;22.40;99.90
14737;DHT22;7459;53.590;10.062;2023-07-29T15:27:30;22.30;99.90
14737;DHT22;7459;53.590;10.062;2023-07-29T15:29:56;22.40;99.90
14737;DHT22;7459;53.590;10.062;2023-07-29T15:32:22;22.40;99.90
14737;DHT22;7459;53.590;10.062;2023-07-29T15:34:48;22.40;99.90
14737;DHT22;7459;53.590;10.062;2023-07-29T15:37:15;22.50;99.90
14737;DHT22;7459;53.590;10.062;2023-07-29T15:39:40;22.40;99.90
14737;DHT22;7459;53.590;10.062;2023-07-29T15:42:07;22.50;99.90
14737;DHT22;7459;53.590;10.062;2023-07-29T15:44:33;22.60;99.90
14737;DHT22;7459;53.590;10.062;2023-07-29T15:46:59;22.70;99.90